KPPA/PPA METAR and TAF weather

Enter ICAO airport designator
Station Type Date Time Source
KPPA METAR 2018/12/11 19:55 UTC NOAA

KPPA 111955Z AUTO 23017G20KT 10SM CLR 13/00 A2995 RMK AO2 T01321002


Station Type Date Time Source
KPPA Decoded METAR 2018/12/11 19:55 UTC NOAA

Pampa, Perry Lefors Field Airport, TX, United States (KPPA) 35-36-46N 100-59-46W
Dec 11, 2018 - 02:55 PM EST / 2018.12.11 1955 UTC
Wind: from the SW (230 degrees) at 20 MPH (17 KT) gusting to 23 MPH (20 KT):0
Visibility: 10 mile(s):0
Sky conditions: clear
Temperature: 55.8 F (13.2 C)
Dew Point: 31.6 F (-0.2 C)
Relative Humidity: 39%
Pressure (altimeter): 29.95 in. Hg (1014 hPa)
ob: KPPA 111955Z AUTO 23017G20KT 10SM CLR 13/00 A2995 RMK AO2 T01321002
cycle: 20

Station Type Date Time Source
KPPA TAF UTC NOAA

Error!


Example: see airport list